sensor_id;sensor_type;location;lat;lon;timestamp;P1;P2;P0
45700;PMS5003;36277;32.852;-116.998;2022-12-18T00:01:17;2.00;2.00;2.00
45700;PMS5003;36277;32.852;-116.998;2022-12-18T00:03:46;1.60;1.60;1.60
45700;PMS5003;36277;32.852;-116.998;2022-12-18T00:06:12;2.00;2.00;2.00
45700;PMS5003;36277;32.852;-116.998;2022-12-18T00:08:40;1.40;1.40;1.40
45700;PMS5003;36277;32.852;-116.998;2022-12-18T00:11:08;2.00;2.00;2.00
45700;PMS5003;36277;32.852;-116.998;2022-12-18T00:13:39;2.00;2.00;1.00
45700;PMS5003;36277;32.852;-116.998;2022-12-18T00:16:07;1.20;1.20;1.20
45700;PMS5003;36277;32.852;-116.998;2022-12-18T00:18:35;1.00;1.00;1.00
45700;PMS5003;36277;32.852;-116.998;2022-12-18T00:21:02;2.00;2.00;2.00
45700;PMS5003;36277;32.852;-116.998;2022-12-18T00:23:30;1.80;1.80;1.00
45700;PMS5003;36277;32.852;-116.998;2022-12-18T00:26:01;1.20;1.20;1.00
45700;PMS5003;36277;32.852;-116.998;2022-12-18T00:28:29;1.00;1.00;1.00
45700;PMS5003;36277;32.852;-116.998;2022-12-18T00:31:00;2.00;2.00;2.00
45700;PMS5003;36277;32.852;-116.998;2022-12-18T00:33:27;1.20;1.20;1.00
45700;PMS5003;36277;32.852;-116.998;2022-12-18T00:35:54;2.00;2.00;2.00
45700;PMS5003;36277;32.852;-116.998;2022-12-18T00:38:20;0.00;0.00;0.00
45700;PMS5003;36277;32.852;-116.998;2022-12-18T00:40:46;1.40;1.40;1.40
45700;PMS5003;36277;32.852;-116.998;2022-12-18T00:43:12;1.40;1.40;1.40
45700;PMS5003;36277;32.852;-116.998;2022-12-18T00:45:39;2.00;2.00;1.80
45700;PMS5003;36277;32.852;-116.998;2022-12-18T00:48:06;1.60;1.60;1.60
45700;PMS5003;36277;32.852;-116.998;2022-12-18T00:50:32;2.00;2.00;2.00
45700;PMS5003;36277;32.852;-116.998;2022-12-18T00:52:58;1.20;1.20;1.00
45700;PMS5003;36277;32.852;-116.998;2022-12-18T00:55:24;1.00;1.00;1.00
45700;PMS5003;36277;32.852;-116.998;2022-12-18T00:57:51;2.00;2.00;2.00
45700;PMS5003;36277;32.852;-116.998;2022-12-18T01:00:18;1.20;1.20;1.00
45700;PMS5003;36277;32.852;-116.998;2022-12-18T01:02:44;2.00;2.00;2.00
45700;PMS5003;36277;32.852;-116.998;2022-12-18T01:05:11;1.60;1.60;1.40
45700;PMS5003;36277;32.852;-116.998;2022-12-18T01:07:38;2.00;2.00;1.60
45700;PMS5003;36277;32.852;-116.998;2022-12-18T01:10:05;1.60;1.60;1.60
45700;PMS5003;36277;32.852;-116.998;2022-12-18T01:12:33;2.00;2.00;2.00
45700;PMS5003;36277;32.852;-116.998;2022-12-18T01:14:59;2.00;2.00;2.00
45700;PMS5003;36277;32.852;-116.998;2022-12-18T01:17:25;1.00;1.00;0.00
45700;PMS5003;36277;32.852;-116.998;2022-12-18T01:19:52;2.00;2.00;1.60
45700;PMS5003;36277;32.852;-116.998;2022-12-18T01:22:18;1.80;1.80;1.60
45700;PMS5003;36277;32.852;-116.998;2022-12-18T01:24:44;2.20;2.20;2.00
45700;PMS5003;36277;32.852;-116.998;2022-12-18T01:27:10;0.80;0.80;0.40
45700;PMS5003;36277;32.852;-116.998;2022-12-18T01:29:37;3.00;3.00;3.00
45700;PMS5003;36277;32.852;-116.998;2022-12-18T01:32:03;2.40;2.40;2.00
45700;PMS5003;36277;32.852;-116.998;2022-12-18T01:34:29;2.00;2.00;1.80
45700;PMS5003;36277;32.852;-116.998;2022-12-18T01:36:56;2.20;2.20;2.00
45700;PMS5003;36277;32.852;-116.998;2022-12-18T01:39:22;3.20;3.20;2.80
45700;PMS5003;36277;32.852;-116.998;2022-12-18T01:41:49;1.60;1.60;1.40
45700;PMS5003;36277;32.852;-116.998;2022-12-18T01:47:20;3.00;3.00;3.00
45700;PMS5003;36277;32.852;-116.998;2022-12-18T01:49:53;2.40;2.40;2.00
45700;PMS5003;36277;32.852;-116.998;2022-12-18T01:52:20;3.00;3.00;3.00
45700;PMS5003;36277;32.852;-116.998;2022-12-18T01:54:49;2.00;2.00;2.00
45700;PMS5003;36277;32.852;-116.998;2022-12-18T01:57:17;3.40;3.40;3.00
45700;PMS5003;36277;32.852;-116.998;2022-12-18T01:59:45;3.00;3.00;2.20
45700;PMS5003;36277;32.852;-116.998;2022-12-18T02:02:18;3.00;3.00;2.60
45700;PMS5003;36277;32.852;-116.998;2022-12-18T02:04:46;2.80;2.80;2.60
45700;PMS5003;36277;32.852;-116.998;2022-12-18T02:10:29;2.60;2.60;2.20
45700;PMS5003;36277;32.852;-116.998;2022-12-18T02:18:56;2.80;2.80;2.40
45700;PMS5003;36277;32.852;-116.998;2022-12-18T02:26:50;3.00;3.00;3.00
45700;PMS5003;36277;32.852;-116.998;2022-12-18T02:29:23;3.00;3.00;3.00
45700;PMS5003;36277;32.852;-116.998;2022-12-18T02:32:03;3.00;3.00;3.00
45700;PMS5003;36277;32.852;-116.998;2022-12-18T02:34:37;3.80;3.80;3.60
45700;PMS5003;36277;32.852;-116.998;2022-12-18T02:37:07;4.00;4.00;3.20
45700;PMS5003;36277;32.852;-116.998;2022-12-18T02:39:41;3.40;3.40;3.00
45700;PMS5003;36277;32.852;-116.998;2022-12-18T02:42:10;4.00;4.00;4.00
45700;PMS5003;36277;32.852;-116.998;2022-12-18T02:44:44;3.80;3.80;3.00
45700;PMS5003;36277;32.852;-116.998;2022-12-18T02:47:16;4.00;4.00;3.60
45700;PMS5003;36277;32.852;-116.998;2022-12-18T02:52:35;5.00;5.00;4.60
45700;PMS5003;36277;32.852;-116.998;2022-12-18T03:01:21;4.20;4.20;4.00
45700;PMS5003;36277;32.852;-116.998;2022-12-18T03:03:55;4.20;4.20;4.00
45700;PMS5003;36277;32.852;-116.998;2022-12-18T03:06:27;5.80;5.80;5.00
45700;PMS5003;36277;32.852;-116.998;2022-12-18T03:08:58;5.00;5.00;4.00
45700;PMS5003;36277;32.852;-116.998;2022-12-18T03:11:28;5.00;5.00;4.40
45700;PMS5003;36277;32.852;-116.998;2022-12-18T03:14:19;5.00;5.00;4.00
45700;PMS5003;36277;32.852;-116.998;2022-12-18T03:16:47;2.00;2.00;2.00
45700;PMS5003;36277;32.852;-116.998;2022-12-18T03:19:18;3.00;3.00;3.00
45700;PMS5003;36277;32.852;-116.998;2022-12-18T03:21:50;5.60;5.60;4.60
45700;PMS5003;36277;32.852;-116.998;2022-12-18T03:24:19;4.80;4.80;4.60
45700;PMS5003;36277;32.852;-116.998;2022-12-18T03:26:49;4.00;4.00;4.00
45700;PMS5003;36277;32.852;-116.998;2022-12-18T03:29:27;4.80;4.80;4.00
45700;PMS5003;36277;32.852;-116.998;2022-12-18T03:32:06;4.40;4.40;4.00
45700;PMS5003;36277;32.852;-116.998;2022-12-18T03:34:38;5.00;5.00;4.20
45700;PMS5003;36277;32.852;-116.998;2022-12-18T03:37:08;5.60;5.60;4.60
45700;PMS5003;36277;32.852;-116.998;2022-12-18T03:39:35;5.80;5.80;5.20
45700;PMS5003;36277;32.852;-116.998;2022-12-18T03:42:07;5.00;5.00;4.40
45700;PMS5003;36277;32.852;-116.998;2022-12-18T03:44:44;5.80;5.80;5.60
45700;PMS5003;36277;32.852;-116.998;2022-12-18T03:47:19;6.00;6.00;5.20
45700;PMS5003;36277;32.852;-116.998;2022-12-18T03:55:38;6.00;6.00;5.00
45700;PMS5003;36277;32.852;-116.998;2022-12-18T03:58:06;6.80;6.80;6.00
45700;PMS5003;36277;32.852;-116.998;2022-12-18T04:00:34;7.00;7.00;6.20
45700;PMS5003;36277;32.852;-116.998;2022-12-18T04:03:01;7.00;7.00;5.60
45700;PMS5003;36277;32.852;-116.998;2022-12-18T04:05:29;7.00;7.00;6.40
45700;PMS5003;36277;32.852;-116.998;2022-12-18T04:07:59;6.00;6.00;6.00
45700;PMS5003;36277;32.852;-116.998;2022-12-18T04:10:26;8.40;8.40;7.00
45700;PMS5003;36277;32.852;-116.998;2022-12-18T04:12:55;4.60;4.60;4.00
45700;PMS5003;36277;32.852;-116.998;2022-12-18T04:15:22;6.00;6.00;5.00
45700;PMS5003;36277;32.852;-116.998;2022-12-18T04:17:49;6.40;6.40;4.80
45700;PMS5003;36277;32.852;-116.998;2022-12-18T04:20:16;6.60;6.60;6.20
45700;PMS5003;36277;32.852;-116.998;2022-12-18T04:22:42;7.40;7.40;5.80
45700;PMS5003;36277;32.852;-116.998;2022-12-18T04:25:12;7.00;7.00;6.00
45700;PMS5003;36277;32.852;-116.998;2022-12-18T04:27:38;4.40;4.40;4.00
45700;PMS5003;36277;32.852;-116.998;2022-12-18T04:30:04;7.20;7.20;6.00
45700;PMS5003;36277;32.852;-116.998;2022-12-18T04:32:33;7.20;7.20;6.80
45700;PMS5003;36277;32.852;-116.998;2022-12-18T04:34:59;7.20;7.20;6.20
45700;PMS5003;36277;32.852;-116.998;2022-12-18T04:37:26;7.60;7.60;7.00
45700;PMS5003;36277;32.852;-116.998;2022-12-18T04:39:52;7.20;7.20;6.20
45700;PMS5003;36277;32.852;-116.998;2022-12-18T04:42:18;8.00;8.00;7.20
45700;PMS5003;36277;32.852;-116.998;2022-12-18T04:44:44;5.00;5.00;4.20
45700;PMS5003;36277;32.852;-116.998;2022-12-18T04:47:10;8.00;8.00;7.00
45700;PMS5003;36277;32.852;-116.998;2022-12-18T04:49:37;6.40;6.40;5.80
45700;PMS5003;36277;32.852;-116.998;2022-12-18T04:52:03;5.20;5.20;4.00
45700;PMS5003;36277;32.852;-116.998;2022-12-18T04:54:29;8.00;8.00;7.00
45700;PMS5003;36277;32.852;-116.998;2022-12-18T04:56:55;8.00;8.00;7.20
45700;PMS5003;36277;32.852;-116.998;2022-12-18T04:59:22;7.00;7.00;6.80
45700;PMS5003;36277;32.852;-116.998;2022-12-18T05:01:48;6.80;6.80;6.40
45700;PMS5003;36277;32.852;-116.998;2022-12-18T05:04:14;7.00;7.00;6.60
45700;PMS5003;36277;32.852;-116.998;2022-12-18T05:06:40;3.00;3.00;2.40
45700;PMS5003;36277;32.852;-116.998;2022-12-18T05:09:07;6.00;6.00;6.00
45700;PMS5003;36277;32.852;-116.998;2022-12-18T05:11:36;5.00;5.00;5.00
45700;PMS5003;36277;32.852;-116.998;2022-12-18T05:14:02;6.00;5.80;4.60
45700;PMS5003;36277;32.852;-116.998;2022-12-18T05:16:29;6.20;6.20;5.80
45700;PMS5003;36277;32.852;-116.998;2022-12-18T05:18:55;7.40;7.40;6.20
45700;PMS5003;36277;32.852;-116.998;2022-12-18T05:21:21;8.00;8.00;6.80
45700;PMS5003;36277;32.852;-116.998;2022-12-18T05:23:47;6.80;6.80;5.20
45700;PMS5003;36277;32.852;-116.998;2022-12-18T05:26:15;6.80;6.80;5.60
45700;PMS5003;36277;32.852;-116.998;2022-12-18T05:28:42;7.00;7.00;6.00
45700;PMS5003;36277;32.852;-116.998;2022-12-18T05:31:09;5.60;5.60;5.00
45700;PMS5003;36277;32.852;-116.998;2022-12-18T05:33:36;7.00;7.00;6.20
45700;PMS5003;36277;32.852;-116.998;2022-12-18T05:36:04;7.40;7.40;7.00
45700;PMS5003;36277;32.852;-116.998;2022-12-18T05:38:32;7.00;7.00;6.60
45700;PMS5003;36277;32.852;-116.998;2022-12-18T05:41:00;6.40;6.40;6.00
45700;PMS5003;36277;32.852;-116.998;2022-12-18T05:43:26;7.00;7.00;6.00
45700;PMS5003;36277;32.852;-116.998;2022-12-18T05:45:54;7.80;7.80;7.00
45700;PMS5003;36277;32.852;-116.998;2022-12-18T05:48:21;6.00;6.00;5.80
45700;PMS5003;36277;32.852;-116.998;2022-12-18T05:50:48;5.40;5.40;5.00
45700;PMS5003;36277;32.852;-116.998;2022-12-18T05:53:16;7.80;7.80;7.40
45700;PMS5003;36277;32.852;-116.998;2022-12-18T05:55:45;5.00;5.00;4.40
45700;PMS5003;36277;32.852;-116.998;2022-12-18T05:58:12;6.80;6.80;5.80
45700;PMS5003;36277;32.852;-116.998;2022-12-18T06:00:41;7.00;7.00;6.00
45700;PMS5003;36277;32.852;-116.998;2022-12-18T06:03:09;7.60;7.60;7.00
45700;PMS5003;36277;32.852;-116.998;2022-12-18T06:05:37;8.80;8.80;6.80
45700;PMS5003;36277;32.852;-116.998;2022-12-18T06:08:06;6.20;6.20;5.40
45700;PMS5003;36277;32.852;-116.998;2022-12-18T06:10:32;7.60;7.60;6.40
45700;PMS5003;36277;32.852;-116.998;2022-12-18T06:12:59;6.60;6.60;6.00
45700;PMS5003;36277;32.852;-116.998;2022-12-18T06:15:25;7.40;7.40;6.60
45700;PMS5003;36277;32.852;-116.998;2022-12-18T06:17:51;6.40;6.40;6.00
45700;PMS5003;36277;32.852;-116.998;2022-12-18T06:20:18;3.00;3.00;2.80
45700;PMS5003;36277;32.852;-116.998;2022-12-18T06:22:44;6.20;6.20;5.40
45700;PMS5003;36277;32.852;-116.998;2022-12-18T06:25:11;7.00;7.00;6.40
45700;PMS5003;36277;32.852;-116.998;2022-12-18T06:27:37;7.00;7.00;6.00
45700;PMS5003;36277;32.852;-116.998;2022-12-18T06:30:12;8.00;8.00;6.60
45700;PMS5003;36277;32.852;-116.998;2022-12-18T06:32:39;6.00;6.00;5.60
45700;PMS5003;36277;32.852;-116.998;2022-12-18T06:35:05;6.60;6.60;6.00
45700;PMS5003;36277;32.852;-116.998;2022-12-18T06:37:32;6.00;6.00;5.00
45700;PMS5003;36277;32.852;-116.998;2022-12-18T06:40:01;8.00;8.00;6.40
45700;PMS5003;36277;32.852;-116.998;2022-12-18T06:42:28;8.00;8.00;7.40
45700;PMS5003;36277;32.852;-116.998;2022-12-18T06:44:54;8.80;8.80;7.20
45700;PMS5003;36277;32.852;-116.998;2022-12-18T06:47:21;8.40;8.40;7.80
45700;PMS5003;36277;32.852;-116.998;2022-12-18T06:49:47;9.00;9.00;8.00
45700;PMS5003;36277;32.852;-116.998;2022-12-18T06:52:16;4.00;4.00;4.00
45700;PMS5003;36277;32.852;-116.998;2022-12-18T06:54:42;8.20;8.20;7.20
45700;PMS5003;36277;32.852;-116.998;2022-12-18T06:57:09;7.00;7.00;6.20
45700;PMS5003;36277;32.852;-116.998;2022-12-18T06:59:35;9.60;9.60;7.40
45700;PMS5003;36277;32.852;-116.998;2022-12-18T07:02:01;9.00;9.00;7.00
45700;PMS5003;36277;32.852;-116.998;2022-12-18T07:04:28;7.60;7.60;6.80
45700;PMS5003;36277;32.852;-116.998;2022-12-18T07:06:57;7.40;7.40;6.00
45700;PMS5003;36277;32.852;-116.998;2022-12-18T07:09:24;5.40;5.40;5.20
45700;PMS5003;36277;32.852;-116.998;2022-12-18T07:11:50;6.60;6.60;6.00
45700;PMS5003;36277;32.852;-116.998;2022-12-18T07:14:16;7.40;7.40;5.60
45700;PMS5003;36277;32.852;-116.998;2022-12-18T07:16:42;8.00;8.00;6.80
45700;PMS5003;36277;32.852;-116.998;2022-12-18T07:19:09;8.00;8.00;6.20
45700;PMS5003;36277;32.852;-116.998;2022-12-18T07:21:35;6.80;6.80;5.60
45700;PMS5003;36277;32.852;-116.998;2022-12-18T07:24:01;8.00;8.00;7.00
45700;PMS5003;36277;32.852;-116.998;2022-12-18T07:26:28;7.40;7.40;6.40
45700;PMS5003;36277;32.852;-116.998;2022-12-18T07:28:54;5.00;5.00;4.00
45700;PMS5003;36277;32.852;-116.998;2022-12-18T07:31:22;8.00;8.00;7.00
45700;PMS5003;36277;32.852;-116.998;2022-12-18T07:33:50;8.60;8.60;6.60
45700;PMS5003;36277;32.852;-116.998;2022-12-18T07:36:17;7.40;7.40;7.00
45700;PMS5003;36277;32.852;-116.998;2022-12-18T07:38:46;5.80;5.80;5.20
45700;PMS5003;36277;32.852;-116.998;2022-12-18T07:41:13;7.80;7.80;7.80
45700;PMS5003;36277;32.852;-116.998;2022-12-18T07:43:42;7.00;7.00;6.00
45700;PMS5003;36277;32.852;-116.998;2022-12-18T07:46:09;7.60;7.60;7.00
45700;PMS5003;36277;32.852;-116.998;2022-12-18T07:48:36;8.00;8.00;7.00
45700;PMS5003;36277;32.852;-116.998;2022-12-18T07:51:04;9.00;9.00;7.80
45700;PMS5003;36277;32.852;-116.998;2022-12-18T07:53:32;7.80;7.80;6.80
45700;PMS5003;36277;32.852;-116.998;2022-12-18T07:55:59;7.00;7.00;6.00
45700;PMS5003;36277;32.852;-116.998;2022-12-18T07:58:28;8.00;8.00;7.00
45700;PMS5003;36277;32.852;-116.998;2022-12-18T08:01:01;6.00;6.00;5.20
45700;PMS5003;36277;32.852;-116.998;2022-12-18T08:03:39;6.20;6.20;6.20
45700;PMS5003;36277;32.852;-116.998;2022-12-18T08:06:07;9.20;8.40;7.20
45700;PMS5003;36277;32.852;-116.998;2022-12-18T08:08:37;7.40;7.40;6.60
45700;PMS5003;36277;32.852;-116.998;2022-12-18T08:11:05;7.20;7.20;6.00
45700;PMS5003;36277;32.852;-116.998;2022-12-18T08:13:31;8.00;8.00;6.20
45700;PMS5003;36277;32.852;-116.998;2022-12-18T08:15:58;9.00;9.00;8.00
45700;PMS5003;36277;32.852;-116.998;2022-12-18T08:18:26;6.20;6.20;6.00
45700;PMS5003;36277;32.852;-116.998;2022-12-18T08:20:53;7.00;7.00;6.20
45700;PMS5003;36277;32.852;-116.998;2022-12-18T08:23:21;5.40;5.40;5.00
45700;PMS5003;36277;32.852;-116.998;2022-12-18T08:25:47;7.00;7.00;6.00
45700;PMS5003;36277;32.852;-116.998;2022-12-18T08:28:17;7.20;7.20;6.40
45700;PMS5003;36277;32.852;-116.998;2022-12-18T08:30:43;7.00;7.00;6.40
45700;PMS5003;36277;32.852;-116.998;2022-12-18T08:33:09;8.40;8.40;6.00
45700;PMS5003;36277;32.852;-116.998;2022-12-18T08:35:35;8.00;8.00;6.40
45700;PMS5003;36277;32.852;-116.998;2022-12-18T08:38:02;6.00;6.00;5.20
45700;PMS5003;36277;32.852;-116.998;2022-12-18T08:40:28;6.60;6.60;6.00
45700;PMS5003;36277;32.852;-116.998;2022-12-18T08:42:55;5.00;5.00;5.00
45700;PMS5003;36277;32.852;-116.998;2022-12-18T08:45:39;6.80;6.80;6.00
45700;PMS5003;36277;32.852;-116.998;2022-12-18T08:48:05;8.00;8.00;6.20
45700;PMS5003;36277;32.852;-116.998;2022-12-18T08:50:32;7.00;7.00;6.00
45700;PMS5003;36277;32.852;-116.998;2022-12-18T08:52:58;7.80;7.80;6.60
45700;PMS5003;36277;32.852;-116.998;2022-12-18T08:55:24;7.40;7.40;6.60
45700;PMS5003;36277;32.852;-116.998;2022-12-18T08:57:50;6.80;6.80;6.00
45700;PMS5003;36277;32.852;-116.998;2022-12-18T09:00:17;2.80;2.80;2.00
45700;PMS5003;36277;32.852;-116.998;2022-12-18T09:02:43;5.80;5.80;4.00
45700;PMS5003;36277;32.852;-116.998;2022-12-18T09:05:10;6.00;6.00;5.60
45700;PMS5003;36277;32.852;-116.998;2022-12-18T09:07:36;7.00;7.00;6.00
45700;PMS5003;36277;32.852;-116.998;2022-12-18T09:10:02;5.00;4.60;4.00
45700;PMS5003;36277;32.852;-116.998;2022-12-18T09:12:38;4.00;4.00;3.00
45700;PMS5003;36277;32.852;-116.998;2022-12-18T09:15:05;2.60;2.60;2.00
45700;PMS5003;36277;32.852;-116.998;2022-12-18T09:17:31;6.00;6.00;6.00
45700;PMS5003;36277;32.852;-116.998;2022-12-18T09:19:58;6.00;6.00;5.00
45700;PMS5003;36277;32.852;-116.998;2022-12-18T09:22:24;6.00;6.00;5.80
45700;PMS5003;36277;32.852;-116.998;2022-12-18T09:24:50;5.00;5.00;5.00
45700;PMS5003;36277;32.852;-116.998;2022-12-18T09:27:16;7.50;7.50;6.50
45700;PMS5003;36277;32.852;-116.998;2022-12-18T09:29:42;6.00;6.00;5.00
45700;PMS5003;36277;32.852;-116.998;2022-12-18T09:32:09;5.00;5.00;4.40
45700;PMS5003;36277;32.852;-116.998;2022-12-18T09:34:35;5.80;5.80;5.00
45700;PMS5003;36277;32.852;-116.998;2022-12-18T09:37:02;5.60;5.60;5.00
45700;PMS5003;36277;32.852;-116.998;2022-12-18T09:39:28;7.40;7.40;6.40
45700;PMS5003;36277;32.852;-116.998;2022-12-18T09:41:55;5.40;5.40;4.60
45700;PMS5003;36277;32.852;-116.998;2022-12-18T09:44:35;6.00;6.00;5.00
45700;PMS5003;36277;32.852;-116.998;2022-12-18T09:47:09;3.40;3.40;3.40
45700;PMS5003;36277;32.852;-116.998;2022-12-18T09:50:01;5.50;5.50;5.00
45700;PMS5003;36277;32.852;-116.998;2022-12-18T09:52:44;5.80;5.80;5.00
45700;PMS5003;36277;32.852;-116.998;2022-12-18T09:55:36;4.00;4.00;3.00
45700;PMS5003;36277;32.852;-116.998;2022-12-18T09:58:28;6.00;6.00;5.00
45700;PMS5003;36277;32.852;-116.998;2022-12-18T10:00:57;4.50;4.50;3.50
45700;PMS5003;36277;32.852;-116.998;2022-12-18T10:03:24;5.40;5.40;4.40
45700;PMS5003;36277;32.852;-116.998;2022-12-18T10:06:01;5.00;5.00;4.20
45700;PMS5003;36277;32.852;-116.998;2022-12-18T10:09:15;5.75;5.75;5.00
45700;PMS5003;36277;32.852;-116.998;2022-12-18T10:20:10;5.25;5.25;4.50
45700;PMS5003;36277;32.852;-116.998;2022-12-18T10:28:10;4.00;4.00;4.00
45700;PMS5003;36277;32.852;-116.998;2022-12-18T10:30:40;5.00;5.00;4.00
45700;PMS5003;36277;32.852;-116.998;2022-12-18T10:33:27;7.00;7.00;6.00
45700;PMS5003;36277;32.852;-116.998;2022-12-18T10:35:55;7.50;7.50;6.50
45700;PMS5003;36277;32.852;-116.998;2022-12-18T10:38:22;5.60;5.60;5.00
45700;PMS5003;36277;32.852;-116.998;2022-12-18T10:40:56;5.33;5.33;5.00
45700;PMS5003;36277;32.852;-116.998;2022-12-18T10:48:36;6.00;6.00;5.25
45700;PMS5003;36277;32.852;-116.998;2022-12-18T10:51:27;5.50;5.50;4.75
45700;PMS5003;36277;32.852;-116.998;2022-12-18T10:54:00;5.50;5.50;4.50
45700;PMS5003;36277;32.852;-116.998;2022-12-18T10:56:31;6.00;6.00;5.00
45700;PMS5003;36277;32.852;-116.998;2022-12-18T10:59:03;5.00;5.00;5.00
45700;PMS5003;36277;32.852;-116.998;2022-12-18T11:01:48;6.25;6.25;5.00
45700;PMS5003;36277;32.852;-116.998;2022-12-18T11:04:24;5.00;5.00;5.00
45700;PMS5003;36277;32.852;-116.998;2022-12-18T11:09:20;5.25;5.25;5.00
45700;PMS5003;36277;32.852;-116.998;2022-12-18T11:11:49;6.00;6.00;6.00
45700;PMS5003;36277;32.852;-116.998;2022-12-18T11:14:27;5.00;5.00;4.25
45700;PMS5003;36277;32.852;-116.998;2022-12-18T11:16:59;6.00;6.00;5.00
45700;PMS5003;36277;32.852;-116.998;2022-12-18T11:22:03;5.50;5.00;4.50
45700;PMS5003;36277;32.852;-116.998;2022-12-18T11:24:53;5.00;5.00;4.00
45700;PMS5003;36277;32.852;-116.998;2022-12-18T11:27:30;6.00;6.00;5.00
45700;PMS5003;36277;32.852;-116.998;2022-12-18T11:30:21;6.00;6.00;5.25
45700;PMS5003;36277;32.852;-116.998;2022-12-18T11:32:57;5.50;5.50;5.00
45700;PMS5003;36277;32.852;-116.998;2022-12-18T11:35:47;6.00;6.00;5.50
45700;PMS5003;36277;32.852;-116.998;2022-12-18T11:38:39;6.00;6.00;5.33
45700;PMS5003;36277;32.852;-116.998;2022-12-18T11:41:26;5.00;5.00;4.00
45700;PMS5003;36277;32.852;-116.998;2022-12-18T11:44:29;5.25;5.25;5.00
45700;PMS5003;36277;32.852;-116.998;2022-12-18T11:47:23;6.00;6.00;5.00
45700;PMS5003;36277;32.852;-116.998;2022-12-18T11:49:55;5.75;5.75;5.00
45700;PMS5003;36277;32.852;-116.998;2022-12-18T11:52:29;6.00;6.00;5.00
45700;PMS5003;36277;32.852;-116.998;2022-12-18T11:55:16;5.25;5.25;4.25
45700;PMS5003;36277;32.852;-116.998;2022-12-18T11:57:55;4.75;4.75;4.00
45700;PMS5003;36277;32.852;-116.998;2022-12-18T12:00:51;5.50;5.50;5.00
45700;PMS5003;36277;32.852;-116.998;2022-12-18T12:11:42;5.75;5.75;5.00
45700;PMS5003;36277;32.852;-116.998;2022-12-18T12:14:20;4.50;4.50;4.00
45700;PMS5003;36277;32.852;-116.998;2022-12-18T12:17:11;5.25;5.25;4.00
45700;PMS5003;36277;32.852;-116.998;2022-12-18T12:22:22;5.00;5.00;4.00
45700;PMS5003;36277;32.852;-116.998;2022-12-18T12:36:08;5.00;5.00;4.00
45700;PMS5003;36277;32.852;-116.998;2022-12-18T12:38:42;3.00;3.00;3.00
45700;PMS5003;36277;32.852;-116.998;2022-12-18T12:41:17;5.50;5.50;4.50
45700;PMS5003;36277;32.852;-116.998;2022-12-18T12:44:07;6.00;6.00;5.25
45700;PMS5003;36277;32.852;-116.998;2022-12-18T12:46:39;4.50;4.50;4.00
45700;PMS5003;36277;32.852;-116.998;2022-12-18T12:49:15;5.00;5.00;5.00
45700;PMS5003;36277;32.852;-116.998;2022-12-18T12:52:05;4.25;4.25;4.00
45700;PMS5003;36277;32.852;-116.998;2022-12-18T12:54:37;4.75;4.75;4.50
45700;PMS5003;36277;32.852;-116.998;2022-12-18T12:57:20;6.00;6.00;5.00
45700;PMS5003;36277;32.852;-116.998;2022-12-18T13:05:19;5.00;5.00;4.00
45700;PMS5003;36277;32.852;-116.998;2022-12-18T13:07:58;6.75;6.75;5.75
45700;PMS5003;36277;32.852;-116.998;2022-12-18T13:10:34;4.00;4.00;4.00
45700;PMS5003;36277;32.852;-116.998;2022-12-18T13:13:09;5.00;5.00;4.75
45700;PMS5003;36277;32.852;-116.998;2022-12-18T13:20:50;5.00;5.00;4.50
45700;PMS5003;36277;32.852;-116.998;2022-12-18T13:23:40;5.00;5.00;4.00
45700;PMS5003;36277;32.852;-116.998;2022-12-18T13:31:14;4.50;4.50;4.25
45700;PMS5003;36277;32.852;-116.998;2022-12-18T13:36:51;4.50;4.50;4.50
45700;PMS5003;36277;32.852;-116.998;2022-12-18T13:41:50;3.00;3.00;2.25
45700;PMS5003;36277;32.852;-116.998;2022-12-18T13:44:31;3.75;3.75;3.00
45700;PMS5003;36277;32.852;-116.998;2022-12-18T13:47:05;4.00;4.00;3.50
45700;PMS5003;36277;32.852;-116.998;2022-12-18T13:49:53;4.00;4.00;3.75
45700;PMS5003;36277;32.852;-116.998;2022-12-18T13:52:22;4.00;4.00;3.00
45700;PMS5003;36277;32.852;-116.998;2022-12-18T13:54:52;4.75;4.75;4.00
45700;PMS5003;36277;32.852;-116.998;2022-12-18T13:57:28;0.00;0.00;0.00
45700;PMS5003;36277;32.852;-116.998;2022-12-18T13:59:57;3.75;3.75;3.00
45700;PMS5003;36277;32.852;-116.998;2022-12-18T14:02:25;4.75;4.75;4.50
45700;PMS5003;36277;32.852;-116.998;2022-12-18T14:04:53;4.00;4.00;4.00
45700;PMS5003;36277;32.852;-116.998;2022-12-18T14:09:54;4.50;4.50;4.00
45700;PMS5003;36277;32.852;-116.998;2022-12-18T14:12:35;4.00;4.00;3.00
45700;PMS5003;36277;32.852;-116.998;2022-12-18T14:17:53;3.00;3.00;3.00
45700;PMS5003;36277;32.852;-116.998;2022-12-18T14:20:29;4.25;4.25;4.00
45700;PMS5003;36277;32.852;-116.998;2022-12-18T14:22:58;4.50;4.50;4.00
45700;PMS5003;36277;32.852;-116.998;2022-12-18T14:25:26;3.50;3.50;3.00
45700;PMS5003;36277;32.852;-116.998;2022-12-18T14:30:39;2.50;2.50;2.50
45700;PMS5003;36277;32.852;-116.998;2022-12-18T14:33:13;3.00;3.00;2.50
45700;PMS5003;36277;32.852;-116.998;2022-12-18T14:38:33;3.00;3.00;2.25
45700;PMS5003;36277;32.852;-116.998;2022-12-18T14:41:12;4.00;4.00;3.00
45700;PMS5003;36277;32.852;-116.998;2022-12-18T14:43:43;1.00;1.00;1.00
45700;PMS5003;36277;32.852;-116.998;2022-12-18T14:46:32;1.75;1.75;1.00
45700;PMS5003;36277;32.852;-116.998;2022-12-18T14:51:52;3.00;3.00;2.75
45700;PMS5003;36277;32.852;-116.998;2022-12-18T14:54:21;2.00;2.00;2.00
45700;PMS5003;36277;32.852;-116.998;2022-12-18T14:56:50;2.00;2.00;2.00
45700;PMS5003;36277;32.852;-116.998;2022-12-18T14:59:23;2.00;2.00;2.00
45700;PMS5003;36277;32.852;-116.998;2022-12-18T15:01:57;2.25;2.25;1.75
45700;PMS5003;36277;32.852;-116.998;2022-12-18T15:07:18;1.00;1.00;1.00
45700;PMS5003;36277;32.852;-116.998;2022-12-18T15:12:47;2.00;2.00;2.00
45700;PMS5003;36277;32.852;-116.998;2022-12-18T15:18:05;1.00;1.00;1.00
45700;PMS5003;36277;32.852;-116.998;2022-12-18T15:20:42;2.25;2.25;2.00
45700;PMS5003;36277;32.852;-116.998;2022-12-18T15:26:11;3.00;3.00;3.00
45700;PMS5003;36277;32.852;-116.998;2022-12-18T15:33:39;2.25;2.25;2.00
45700;PMS5003;36277;32.852;-116.998;2022-12-18T15:36:17;1.50;1.50;1.50
45700;PMS5003;36277;32.852;-116.998;2022-12-18T15:38:48;2.00;2.00;2.00
45700;PMS5003;36277;32.852;-116.998;2022-12-18T15:41:18;2.00;2.00;2.00
45700;PMS5003;36277;32.852;-116.998;2022-12-18T15:43:47;1.00;1.00;1.00
45700;PMS5003;36277;32.852;-116.998;2022-12-18T15:48:44;1.80;1.80;1.60
45700;PMS5003;36277;32.852;-116.998;2022-12-18T15:51:13;2.00;2.00;2.00
45700;PMS5003;36277;32.852;-116.998;2022-12-18T15:53:45;2.20;2.20;2.00
45700;PMS5003;36277;32.852;-116.998;2022-12-18T15:56:14;1.00;1.00;1.00
45700;PMS5003;36277;32.852;-116.998;2022-12-18T15:59:00;2.00;2.00;1.60
45700;PMS5003;36277;32.852;-116.998;2022-12-18T16:01:27;1.00;1.00;1.00
45700;PMS5003;36277;32.852;-116.998;2022-12-18T16:03:56;2.40;2.40;2.00
45700;PMS5003;36277;32.852;-116.998;2022-12-18T16:06:22;17.25;17.25;14.50
45700;PMS5003;36277;32.852;-116.998;2022-12-18T16:08:49;26.00;26.00;20.75
45700;PMS5003;36277;32.852;-116.998;2022-12-18T16:11:22;89.00;88.60;65.80
45700;PMS5003;36277;32.852;-116.998;2022-12-18T16:16:53;434.40;401.60;228.60
45700;PMS5003;36277;32.852;-116.998;2022-12-18T16:19:24;674.40;591.40;272.60